createdAt,value
2023-02-06T00:01:55.546Z,102549.34
2023-02-06T00:04:25.011Z,102544.47
2023-02-06T00:06:54.613Z,102535.06
2023-02-06T00:09:24.421Z,102533.73
2023-02-06T00:11:53.932Z,102523.72
2023-02-06T00:14:23.566Z,102528.47
2023-02-06T00:16:53.118Z,102532.38
2023-02-06T00:19:22.880Z,102527.22
2023-02-06T00:21:52.601Z,102530.34
2023-02-06T00:24:22.365Z,102540.33
2023-02-06T00:26:51.991Z,102545.53
2023-02-06T00:29:21.713Z,102529.83
2023-02-06T00:31:51.201Z,102526.92
2023-02-06T00:34:20.939Z,102530.30
2023-02-06T00:36:51.890Z,102528.30
2023-02-06T00:39:21.433Z,102539.55
2023-02-06T00:41:50.928Z,102548.13
2023-02-06T00:44:21.554Z,102554.62
2023-02-06T00:46:51.686Z,102552.08
2023-02-06T00:49:21.163Z,102551.62
2023-02-06T00:51:52.594Z,102553.78
2023-02-06T00:54:22.365Z,102552.87
2023-02-06T00:56:51.942Z,102552.87
2023-02-06T00:59:21.657Z,102550.00
2023-02-06T01:01:51.169Z,102556.36
2023-02-06T01:04:20.920Z,102559.07
2023-02-06T01:06:50.541Z,102544.25
2023-02-06T01:09:20.386Z,102544.46
2023-02-06T01:11:50.547Z,102549.81
2023-02-06T01:14:21.434Z,102535.76
2023-02-06T01:16:51.094Z,102525.52
2023-02-06T01:19:20.761Z,102535.77
2023-02-06T01:21:50.319Z,102536.32
2023-02-06T01:24:20.096Z,102526.79
2023-02-06T01:26:49.578Z,102522.00
2023-02-06T01:29:19.866Z,102519.23
2023-02-06T01:31:49.426Z,102515.14
2023-02-06T01:34:19.212Z,102519.59
2023-02-06T01:36:48.862Z,102514.39
2023-02-06T01:39:18.619Z,102515.64
2023-02-06T01:41:48.092Z,102514.72
2023-02-06T01:44:24.469Z,102513.34
2023-02-06T01:46:57.089Z,102529.13
2023-02-06T01:49:38.957Z,102514.98
2023-02-06T01:52:11.924Z,102512.45
2023-02-06T01:54:42.499Z,102500.53
2023-02-06T01:57:14.573Z,102498.83
2023-02-06T01:59:44.425Z,102506.01
2023-02-06T02:02:15.144Z,102510.47
2023-02-06T02:04:44.945Z,102511.59
2023-02-06T02:07:20.014Z,102524.11
2023-02-06T02:09:49.630Z,102525.67
2023-02-06T02:12:19.637Z,102531.48
2023-02-06T02:14:51.542Z,102519.18
2023-02-06T02:17:30.037Z,102519.18
2023-02-06T02:20:30.720Z,102526.75
2023-02-06T02:23:21.127Z,102533.45
2023-02-06T02:25:53.649Z,102521.59
2023-02-06T02:28:50.290Z,102511.69
2023-02-06T02:31:56.741Z,102504.03
2023-02-06T02:34:47.420Z,102499.98
2023-02-06T02:37:23.694Z,102486.67
2023-02-06T02:40:14.649Z,102480.68
2023-02-06T02:43:08.696Z,102476.73
2023-02-06T02:45:50.114Z,102476.73
2023-02-06T02:48:23.128Z,102469.67
2023-02-06T02:50:55.163Z,102474.70
2023-02-06T02:53:24.947Z,102452.23
2023-02-06T02:55:55.931Z,102452.23
2023-02-06T02:58:29.760Z,102439.97
2023-02-06T03:01:02.371Z,102439.24
2023-02-06T03:03:35.751Z,102438.09
2023-02-06T03:06:27.330Z,102441.34
2023-02-06T03:09:03.576Z,102449.99
2023-02-06T03:11:34.769Z,102444.00
2023-02-06T03:14:16.780Z,102429.05
2023-02-06T03:16:52.268Z,102438.01
2023-02-06T03:19:34.303Z,102444.83
2023-02-06T03:22:06.285Z,102444.67
2023-02-06T03:24:38.806Z,102443.93
2023-02-06T03:27:11.637Z,102438.44
2023-02-06T03:29:43.578Z,102444.23
2023-02-06T03:32:16.383Z,102441.14
2023-02-06T03:35:05.561Z,102450.95
2023-02-06T03:37:37.637Z,102455.82
2023-02-06T03:40:09.304Z,102454.77
2023-02-06T03:42:45.539Z,102461.53
2023-02-06T03:45:18.405Z,102452.73
2023-02-06T03:47:49.898Z,102449.79
2023-02-06T03:50:20.327Z,102451.25
2023-02-06T03:52:53.005Z,102458.30
2023-02-06T03:55:24.628Z,102449.36
2023-02-06T03:57:59.880Z,102442.21
2023-02-06T04:00:31.862Z,102443.70
2023-02-06T04:03:01.954Z,102434.41
2023-02-06T04:05:31.507Z,102439.13
2023-02-06T04:08:01.335Z,102442.70
2023-02-06T04:10:30.825Z,102451.48
2023-02-06T04:13:00.285Z,102445.50
2023-02-06T04:15:29.810Z,102442.75
2023-02-06T04:18:01.506Z,102441.38
2023-02-06T04:20:30.498Z,102448.84
2023-02-06T04:22:59.960Z,102442.67
2023-02-06T04:25:29.489Z,102438.92
2023-02-06T04:27:59.245Z,102427.77
2023-02-06T04:30:28.788Z,102429.97
2023-02-06T04:32:58.330Z,102429.14
2023-02-06T04:35:27.784Z,102431.72
2023-02-06T04:37:57.555Z,102432.67
2023-02-06T04:40:27.254Z,102430.19
2023-02-06T04:42:56.740Z,102435.98
2023-02-06T04:45:26.269Z,102426.92
2023-02-06T04:47:57.037Z,102430.06
2023-02-06T04:50:27.831Z,102436.55
2023-02-06T04:52:57.211Z,102443.45
2023-02-06T04:55:26.766Z,102441.52
2023-02-06T04:57:56.230Z,102444.93
2023-02-06T05:00:26.015Z,102452.36
2023-02-06T05:02:55.521Z,102449.00
2023-02-06T05:05:25.396Z,102443.17
2023-02-06T05:07:55.134Z,102442.52
2023-02-06T05:10:24.778Z,102449.98
2023-02-06T05:12:56.101Z,102449.98
2023-02-06T05:15:25.871Z,102431.75
2023-02-06T05:17:56.028Z,102431.75
2023-02-06T05:20:25.865Z,102438.05
2023-02-06T05:22:55.436Z,102435.10
2023-02-06T05:25:25.647Z,102432.76
2023-02-06T05:27:55.263Z,102431.19
2023-02-06T05:30:25.613Z,102424.80
2023-02-06T05:32:55.593Z,102430.33
2023-02-06T05:35:25.823Z,102439.14
2023-02-06T05:37:55.585Z,102439.40
2023-02-06T05:40:25.602Z,102440.34
2023-02-06T05:42:55.070Z,102441.34
2023-02-06T05:45:25.887Z,102446.13
2023-02-06T05:47:54.651Z,102444.04
2023-02-06T05:50:24.094Z,102448.87
2023-02-06T05:52:53.658Z,102451.73
2023-02-06T05:55:23.150Z,102456.49
2023-02-06T05:57:52.612Z,102456.43
2023-02-06T06:00:22.560Z,102459.91
2023-02-06T06:02:52.083Z,102469.48
2023-02-06T06:05:21.878Z,102470.13
2023-02-06T06:07:51.742Z,102470.30
2023-02-06T06:10:21.679Z,102469.30
2023-02-06T06:12:51.524Z,102463.73
2023-02-06T06:15:21.030Z,102452.58
2023-02-06T06:17:50.684Z,102446.58
2023-02-06T06:20:20.620Z,102443.70
2023-02-06T06:22:50.208Z,102438.67
2023-02-06T06:25:20.085Z,102441.50
2023-02-06T06:27:49.611Z,102433.79
2023-02-06T06:30:19.345Z,102406.23
2023-02-06T06:32:48.841Z,102423.20
2023-02-06T06:35:18.751Z,102422.66
2023-02-06T06:37:48.311Z,102421.52
2023-02-06T06:40:18.639Z,102428.19
2023-02-06T06:42:48.285Z,102423.40
2023-02-06T06:45:17.918Z,102431.27
2023-02-06T06:47:47.418Z,102433.47
2023-02-06T06:50:17.321Z,102439.91
2023-02-06T06:52:46.803Z,102444.78
2023-02-06T06:55:16.713Z,102450.94
2023-02-06T06:57:47.258Z,102452.81
2023-02-06T07:00:17.866Z,102462.27
2023-02-06T07:02:47.658Z,102465.95
2023-02-06T07:05:17.308Z,102462.16
2023-02-06T07:07:48.657Z,102465.36
2023-02-06T07:10:18.868Z,102466.73
2023-02-06T07:12:48.348Z,102469.45
2023-02-06T07:15:17.972Z,102465.24
2023-02-06T07:17:48.268Z,102464.41
2023-02-06T07:20:18.388Z,102467.52
2023-02-06T07:22:49.663Z,102472.84
2023-02-06T07:25:20.278Z,102479.83
2023-02-06T07:27:50.096Z,102473.48
2023-02-06T07:30:20.177Z,102474.84
2023-02-06T07:32:49.718Z,102475.48
2023-02-06T07:35:19.329Z,102477.16
2023-02-06T07:37:48.879Z,102476.61
2023-02-06T07:40:18.718Z,102477.16
2023-02-06T07:42:48.334Z,102474.05
2023-02-06T07:45:26.866Z,102472.61
2023-02-06T07:47:56.693Z,102478.03
2023-02-06T07:50:26.301Z,102474.82
2023-02-06T07:52:55.920Z,102477.37
2023-02-06T07:55:25.925Z,102479.89
2023-02-06T07:57:56.316Z,102477.09
2023-02-06T08:00:25.917Z,102475.51
2023-02-06T08:02:55.469Z,102481.08
2023-02-06T08:05:24.965Z,102477.84
2023-02-06T08:07:54.450Z,102469.95
2023-02-06T08:10:24.257Z,102471.97
2023-02-06T08:12:53.946Z,102476.27
2023-02-06T08:15:23.507Z,102474.19
2023-02-06T08:17:53.037Z,102476.02
2023-02-06T08:20:22.690Z,102473.42
2023-02-06T08:22:52.232Z,102482.23
2023-02-06T08:25:22.374Z,102485.33
2023-02-06T08:27:58.023Z,102485.89
2023-02-06T08:30:27.584Z,102490.13
2023-02-06T08:32:57.106Z,102489.99
2023-02-06T08:35:26.579Z,102482.56
2023-02-06T08:37:56.060Z,102489.25
2023-02-06T08:40:25.853Z,102480.51
2023-02-06T08:42:55.518Z,102480.48
2023-02-06T08:45:25.016Z,102472.48
2023-02-06T08:47:54.469Z,102472.66
2023-02-06T08:50:24.181Z,102472.70
2023-02-06T08:52:53.659Z,102472.31
2023-02-06T08:55:25.289Z,102471.67
2023-02-06T08:57:54.790Z,102475.66
2023-02-06T09:00:24.571Z,102477.05
2023-02-06T09:02:55.167Z,102472.28
2023-02-06T09:05:24.999Z,102471.81
2023-02-06T09:07:54.440Z,102467.81
2023-02-06T09:10:27.779Z,102468.30
2023-02-06T09:12:55.866Z,102467.37
2023-02-06T09:15:25.634Z,102465.43
2023-02-06T09:17:55.131Z,102475.08
2023-02-06T09:20:26.691Z,102471.09
2023-02-06T09:22:56.593Z,102476.69
2023-02-06T09:25:26.124Z,102477.98
2023-02-06T09:27:57.055Z,102478.11
2023-02-06T09:30:25.959Z,102475.17
2023-02-06T09:32:55.345Z,102479.72
2023-02-06T09:35:25.994Z,102461.64
2023-02-06T09:37:55.758Z,102461.64
2023-02-06T09:40:29.643Z,102479.05
2023-02-06T09:43:00.073Z,102478.64
2023-02-06T09:45:32.333Z,102478.64
2023-02-06T09:48:11.368Z,102469.52
2023-02-06T09:50:58.826Z,102475.43
2023-02-06T09:53:46.475Z,102476.29
2023-02-06T09:56:25.046Z,102467.27
2023-02-06T09:59:17.576Z,102473.00
2023-02-06T10:02:01.521Z,102466.82
2023-02-06T10:04:46.693Z,102465.39
2023-02-06T10:07:44.061Z,102460.09
2023-02-06T10:10:34.963Z,102443.89
2023-02-06T10:13:10.098Z,102443.89
2023-02-06T10:15:48.877Z,102453.66
2023-02-06T10:18:47.307Z,102462.02
2023-02-06T10:21:22.936Z,102463.39
2023-02-06T10:23:55.914Z,102457.08
2023-02-06T10:26:25.663Z,102461.84
2023-02-06T10:28:58.814Z,102460.24
2023-02-06T10:31:34.579Z,102463.80
2023-02-06T10:34:13.097Z,102464.27
2023-02-06T10:37:06.855Z,102460.81
2023-02-06T10:39:57.395Z,102456.47
2023-02-06T10:42:56.503Z,102449.91
2023-02-06T10:45:32.711Z,102460.92
2023-02-06T10:48:31.319Z,102464.83
2023-02-06T10:51:09.972Z,102458.39
2023-02-06T10:53:45.710Z,102456.66
2023-02-06T10:56:17.531Z,102456.17
2023-02-06T10:58:53.538Z,102452.78
2023-02-06T11:01:27.127Z,102466.63
2023-02-06T11:04:02.798Z,102461.95
2023-02-06T11:06:33.999Z,102461.00
2023-02-06T11:09:04.311Z,102451.39
2023-02-06T11:11:37.429Z,102451.39
2023-02-06T11:14:18.428Z,102441.98
2023-02-06T11:16:48.557Z,102438.91
2023-02-06T11:19:24.161Z,102438.91
2023-02-06T11:22:07.238Z,102435.92
2023-02-06T11:24:38.543Z,102434.14
2023-02-06T11:27:17.348Z,102440.24
2023-02-06T11:29:52.084Z,102441.08
2023-02-06T11:32:41.022Z,102436.80
2023-02-06T11:35:33.253Z,102436.77
2023-02-06T11:38:17.487Z,102425.77
2023-02-06T11:40:56.097Z,102435.01
2023-02-06T11:43:28.763Z,102432.80
2023-02-06T11:46:15.108Z,102429.68
2023-02-06T11:48:50.966Z,102441.53
2023-02-06T11:51:20.699Z,102448.05
2023-02-06T11:54:01.051Z,102446.73
2023-02-06T11:56:32.587Z,102450.69
2023-02-06T11:59:06.929Z,102461.21
2023-02-06T12:01:42.887Z,102461.21
2023-02-06T12:04:27.562Z,102448.88
2023-02-06T12:07:00.374Z,102460.04
2023-02-06T12:09:30.304Z,102458.88
2023-02-06T12:12:24.118Z,102458.88
2023-02-06T12:14:59.673Z,102453.20
2023-02-06T12:17:37.459Z,102458.73
2023-02-06T12:20:15.858Z,102446.48
2023-02-06T12:22:48.712Z,102445.31
2023-02-06T12:25:37.373Z,102447.64
2023-02-06T12:28:28.218Z,102442.16
2023-02-06T12:31:01.323Z,102448.09
2023-02-06T12:33:35.700Z,102446.25
2023-02-06T12:36:11.264Z,102436.75
2023-02-06T12:38:53.300Z,102434.17
2023-02-06T12:41:39.026Z,102437.97
2023-02-06T12:44:28.119Z,102435.99
2023-02-06T12:47:04.086Z,102437.11
2023-02-06T12:49:39.690Z,102435.77
2023-02-06T12:52:39.615Z,102431.91
2023-02-06T12:55:20.834Z,102428.50
2023-02-06T12:57:51.515Z,102430.72
2023-02-06T13:00:45.351Z,102426.61
2023-02-06T13:03:30.176Z,102433.48
2023-02-06T13:06:17.381Z,102422.28
2023-02-06T13:08:59.324Z,102415.96
2023-02-06T13:11:39.014Z,102416.37
2023-02-06T13:14:17.871Z,102424.60
2023-02-06T13:16:53.635Z,102420.88
2023-02-06T13:19:44.109Z,102422.85
2023-02-06T13:22:18.526Z,102418.74
2023-02-06T13:24:49.870Z,102419.88
2023-02-06T13:27:24.649Z,102425.45
2023-02-06T13:29:55.140Z,102423.15
2023-02-06T13:32:33.632Z,102423.63
2023-02-06T13:35:09.188Z,102421.64
2023-02-06T13:37:46.754Z,102423.94
2023-02-06T13:40:29.757Z,102436.30
2023-02-06T13:43:25.183Z,102430.36
2023-02-06T13:46:06.585Z,102434.98
2023-02-06T13:48:55.668Z,102436.29
2023-02-06T13:51:44.728Z,102436.45
2023-02-06T13:54:51.156Z,102444.45
2023-02-06T13:57:55.179Z,102447.37
2023-02-06T14:00:30.715Z,102452.22
2023-02-06T14:03:09.464Z,102460.63
2023-02-06T14:06:06.521Z,102469.17
2023-02-06T14:08:42.258Z,102469.95
2023-02-06T14:11:57.516Z,102470.06
2023-02-06T14:14:33.676Z,102471.25
2023-02-06T14:17:08.928Z,102481.12
2023-02-06T14:19:47.534Z,102475.48
2023-02-06T14:22:28.575Z,102477.31
2023-02-06T14:25:20.982Z,102477.98
2023-02-06T14:28:25.511Z,102477.98
2023-02-06T14:31:10.243Z,102491.98
2023-02-06T14:33:51.831Z,102492.05
2023-02-06T14:36:36.364Z,102495.44
2023-02-06T14:39:29.143Z,102490.42
2023-02-06T14:41:59.583Z,102490.67
2023-02-06T14:44:31.856Z,102490.73
2023-02-06T14:47:01.757Z,102495.77
2023-02-06T14:49:34.565Z,102498.53
2023-02-06T14:52:05.587Z,102501.05
2023-02-06T14:54:36.537Z,102504.23
2023-02-06T14:57:09.539Z,102508.66
2023-02-06T14:59:39.349Z,102506.23
2023-02-06T15:02:17.164Z,102509.32
2023-02-06T15:04:48.263Z,102516.32
2023-02-06T15:07:26.834Z,102514.02
2023-02-06T15:10:02.393Z,102517.99
2023-02-06T15:12:32.614Z,102517.83
2023-02-06T15:15:05.466Z,102519.05
2023-02-06T15:17:35.203Z,102519.62
2023-02-06T15:20:25.916Z,102521.23
2023-02-06T15:23:11.673Z,102528.64
2023-02-06T15:25:38.828Z,102530.88
2023-02-06T15:28:14.378Z,102538.70
2023-02-06T15:30:44.391Z,102529.48
2023-02-06T15:33:17.220Z,102526.16
2023-02-06T15:35:55.219Z,102526.16
2023-02-06T15:38:28.040Z,102528.48
2023-02-06T15:41:01.197Z,102534.03
2023-02-06T15:43:31.481Z,102536.95
2023-02-06T15:46:04.382Z,102530.98
2023-02-06T15:48:52.270Z,102533.94
2023-02-06T15:51:27.810Z,102528.80
2023-02-06T15:54:12.474Z,102540.33
2023-02-06T15:56:44.276Z,102538.57
2023-02-06T15:59:17.088Z,102549.66
2023-02-06T16:01:46.929Z,102545.67
2023-02-06T16:04:31.687Z,102546.02
2023-02-06T16:07:10.230Z,102543.52
2023-02-06T16:09:45.967Z,102543.06
2023-02-06T16:12:16.558Z,102549.52
2023-02-06T16:15:00.750Z,102550.39
2023-02-06T16:17:40.200Z,102543.78
2023-02-06T16:20:39.663Z,102547.64
2023-02-06T16:23:30.862Z,102559.72
2023-02-06T16:26:09.151Z,102562.63
2023-02-06T16:28:56.931Z,102556.20
2023-02-06T16:31:29.406Z,102555.67
2023-02-06T16:34:01.685Z,102567.31
2023-02-06T16:36:33.633Z,102566.72
2023-02-06T16:39:04.845Z,102569.05
2023-02-06T16:41:40.044Z,102569.47
2023-02-06T16:44:15.001Z,102569.82
2023-02-06T16:46:46.385Z,102577.03
2023-02-06T16:49:19.066Z,102577.02
2023-02-06T16:51:51.609Z,102584.72
2023-02-06T16:54:27.002Z,102584.98
2023-02-06T16:56:59.702Z,102594.86
2023-02-06T16:59:29.465Z,102589.49
2023-02-06T17:01:59.528Z,102580.73
2023-02-06T17:04:29.226Z,102592.80
2023-02-06T17:06:59.002Z,102584.48
2023-02-06T17:09:28.834Z,102592.09
2023-02-06T17:11:58.304Z,102606.56
2023-02-06T17:14:27.821Z,102616.07
2023-02-06T17:16:57.370Z,102625.59
2023-02-06T17:19:26.893Z,102621.61
2023-02-06T17:21:56.380Z,102622.13
2023-02-06T17:24:26.124Z,102631.28
2023-02-06T17:26:55.855Z,102630.61
2023-02-06T17:29:25.990Z,102632.38
2023-02-06T17:31:55.594Z,102632.38
2023-02-06T17:34:25.610Z,102631.47
2023-02-06T17:36:55.525Z,102634.06
2023-02-06T17:39:25.535Z,102627.59
2023-02-06T17:41:55.016Z,102627.14
2023-02-06T17:44:24.552Z,102621.87
2023-02-06T17:46:54.037Z,102627.46
2023-02-06T17:49:23.719Z,102630.25
2023-02-06T17:51:54.488Z,102627.52
2023-02-06T17:54:24.232Z,102630.95
2023-02-06T17:56:53.711Z,102617.63
2023-02-06T17:59:23.403Z,102634.94
2023-02-06T18:01:53.041Z,102637.34
2023-02-06T18:04:24.545Z,102634.64
2023-02-06T18:06:54.320Z,102627.63
2023-02-06T18:09:24.097Z,102623.61
2023-02-06T18:11:53.881Z,102625.71
2023-02-06T18:14:23.517Z,102618.81
2023-02-06T18:16:53.052Z,102618.81
2023-02-06T18:19:24.432Z,102623.50
2023-02-06T18:21:53.169Z,102623.50
2023-02-06T18:24:22.986Z,102618.09
2023-02-06T18:26:52.578Z,102620.98
2023-02-06T18:29:22.362Z,102619.99
2023-02-06T18:31:52.157Z,102619.99
2023-02-06T18:34:21.945Z,102621.41
2023-02-06T18:36:51.413Z,102620.45
2023-02-06T18:39:21.239Z,102623.69
2023-02-06T18:42:08.587Z,102629.52
2023-02-06T18:44:39.866Z,102635.40
2023-02-06T18:47:14.127Z,102638.72
2023-02-06T18:49:44.196Z,102639.05
2023-02-06T18:52:13.835Z,102636.37
2023-02-06T18:54:43.460Z,102622.97
2023-02-06T18:57:13.246Z,102625.64
2023-02-06T18:59:42.877Z,102618.23
2023-02-06T19:02:13.334Z,102618.59
2023-02-06T19:04:43.085Z,102629.03
2023-02-06T19:07:13.622Z,102646.44
2023-02-06T19:09:43.953Z,102643.11
2023-02-06T19:12:13.798Z,102639.08
2023-02-06T19:14:43.536Z,102642.52
2023-02-06T19:17:13.215Z,102633.66
2023-02-06T19:19:42.712Z,102624.59
2023-02-06T19:22:12.502Z,102630.86
2023-02-06T19:24:44.800Z,102641.64
2023-02-06T19:27:14.683Z,102639.66
2023-02-06T19:29:44.286Z,102646.38
2023-02-06T19:32:13.866Z,102649.28
2023-02-06T19:34:45.219Z,102644.91
2023-02-06T19:37:15.527Z,102654.86
2023-02-06T19:39:44.991Z,102659.89
2023-02-06T19:42:16.195Z,102659.60
2023-02-06T19:44:46.163Z,102675.16
2023-02-06T19:47:15.673Z,102669.64
2023-02-06T19:49:45.246Z,102671.26
2023-02-06T19:52:15.023Z,102671.95
2023-02-06T19:54:44.642Z,102687.02
2023-02-06T19:57:14.948Z,102693.48
2023-02-06T19:59:44.574Z,102699.41
2023-02-06T20:02:16.563Z,102702.61
2023-02-06T20:04:46.234Z,102703.55
2023-02-06T20:07:15.936Z,102712.36
2023-02-06T20:09:46.043Z,102707.70
2023-02-06T20:12:16.132Z,102708.33
2023-02-06T20:14:45.630Z,102720.60
2023-02-06T20:17:16.749Z,102727.87
2023-02-06T20:19:46.474Z,102738.48
2023-02-06T20:22:16.236Z,102726.80
2023-02-06T20:24:45.968Z,102731.59
2023-02-06T20:27:15.719Z,102725.94
2023-02-06T20:29:45.828Z,102725.94
2023-02-06T20:32:16.622Z,102743.31
2023-02-06T20:34:47.533Z,102744.09
2023-02-06T20:37:17.631Z,102744.09
2023-02-06T20:39:47.020Z,102759.39
2023-02-06T20:42:16.964Z,102754.17
2023-02-06T20:44:46.519Z,102757.52
2023-02-06T20:47:16.276Z,102767.30
2023-02-06T20:49:45.957Z,102769.72
2023-02-06T20:52:15.660Z,102769.72
2023-02-06T20:54:45.297Z,102766.73
2023-02-06T20:57:15.396Z,102759.96
2023-02-06T20:59:44.927Z,102761.74
2023-02-06T21:02:14.738Z,102766.07
2023-02-06T21:04:44.504Z,102766.07
2023-02-06T21:07:15.954Z,102759.93
2023-02-06T21:09:45.435Z,102760.70
2023-02-06T21:12:15.720Z,102754.50
2023-02-06T21:14:45.343Z,102751.70
2023-02-06T21:17:14.964Z,102745.73
2023-02-06T21:19:44.495Z,102753.66
2023-02-06T21:22:14.259Z,102757.77
2023-02-06T21:24:43.758Z,102756.83
2023-02-06T21:27:13.396Z,102755.78
2023-02-06T21:29:42.860Z,102747.65
2023-02-06T21:32:14.446Z,102748.47
2023-02-06T21:34:43.170Z,102744.08
2023-02-06T21:37:12.637Z,102732.55
2023-02-06T21:39:42.655Z,102732.38
2023-02-06T21:42:12.796Z,102730.74
2023-02-06T21:44:42.261Z,102730.28
2023-02-06T21:47:11.753Z,102731.91
2023-02-06T21:49:41.289Z,102748.56
2023-02-06T21:52:10.990Z,102755.29
2023-02-06T21:54:40.538Z,102741.89
2023-02-06T21:57:10.327Z,102729.81
2023-02-06T21:59:40.882Z,102729.80
2023-02-06T22:02:12.310Z,102749.84
2023-02-06T22:04:41.988Z,102747.27
2023-02-06T22:07:13.230Z,102751.48
2023-02-06T22:09:42.779Z,102755.98
2023-02-06T22:12:12.250Z,102756.77
2023-02-06T22:14:41.773Z,102760.22
2023-02-06T22:17:11.428Z,102756.80
2023-02-06T22:19:41.073Z,102754.23
2023-02-06T22:22:12.446Z,102747.36
2023-02-06T22:24:44.391Z,102745.02
2023-02-06T22:27:14.163Z,102738.12
2023-02-06T22:29:43.961Z,102743.55
2023-02-06T22:32:13.426Z,102746.59
2023-02-06T22:34:42.914Z,102749.63
2023-02-06T22:37:12.674Z,102746.06
2023-02-06T22:39:42.350Z,102749.34
2023-02-06T22:42:12.243Z,102745.08
2023-02-06T22:44:41.854Z,102743.61
2023-02-06T22:47:11.355Z,102753.06
2023-02-06T22:49:40.973Z,102754.96
2023-02-06T22:52:12.437Z,102747.19
2023-02-06T22:54:41.170Z,102754.02
2023-02-06T22:57:10.564Z,102755.18
2023-02-06T22:59:40.036Z,102756.06
2023-02-06T23:02:09.635Z,102763.78
2023-02-06T23:04:40.598Z,102757.53
2023-02-06T23:07:10.385Z,102762.83
2023-02-06T23:09:40.690Z,102780.73
2023-02-06T23:12:11.602Z,102773.47
2023-02-06T23:14:41.394Z,102786.67
2023-02-06T23:17:11.147Z,102791.02
2023-02-06T23:19:41.164Z,102791.02
2023-02-06T23:22:10.710Z,102797.36
2023-02-06T23:24:40.197Z,102797.83
2023-02-06T23:27:10.057Z,102804.90
2023-02-06T23:29:39.572Z,102804.35
2023-02-06T23:32:09.070Z,102796.42
2023-02-06T23:34:40.071Z,102797.94
2023-02-06T23:37:09.882Z,102787.31
2023-02-06T23:39:39.359Z,102787.63
2023-02-06T23:42:08.931Z,102791.91
2023-02-06T23:44:38.483Z,102796.02
2023-02-06T23:47:08.349Z,102793.86
2023-02-06T23:49:38.218Z,102804.08
2023-02-06T23:52:08.003Z,102805.84
2023-02-06T23:54:37.798Z,102810.36
2023-02-06T23:57:07.601Z,102805.77
2023-02-06T23:59:37.120Z,102809.33
